createdAt,value
2019-05-06T00:00:59.107Z,1008.88
2019-05-06T00:01:54.374Z,1008.82
2019-05-06T00:02:54.767Z,1008.86
2019-05-06T00:03:54.623Z,1008.84
2019-05-06T00:04:55.056Z,1008.80
2019-05-06T00:05:55.506Z,1008.85
2019-05-06T00:06:55.953Z,1008.81
2019-05-06T00:07:56.214Z,1008.76
2019-05-06T00:08:56.545Z,1008.80
2019-05-06T00:09:57.011Z,1008.75
2019-05-06T00:10:57.458Z,1008.75
2019-05-06T00:11:57.958Z,1008.76
2019-05-06T00:12:58.180Z,1008.78
2019-05-06T00:13:58.668Z,1008.75
2019-05-06T00:14:58.911Z,1008.79
2019-05-06T00:15:59.367Z,1008.81
2019-05-06T00:16:59.724Z,1008.86
2019-05-06T00:17:59.974Z,1008.85
2019-05-06T00:19:00.211Z,1008.81
2019-05-06T00:20:00.637Z,1008.89
2019-05-06T00:21:00.672Z,1008.89
2019-05-06T00:22:00.962Z,1008.83
2019-05-06T00:23:01.139Z,1008.84
2019-05-06T00:24:03.769Z,1008.87
2019-05-06T00:25:01.999Z,1008.93
2019-05-06T00:26:04.026Z,1008.89
2019-05-06T00:27:04.774Z,1008.89
2019-05-06T00:28:05.825Z,1008.95
2019-05-06T00:29:04.516Z,1008.86
2019-05-06T00:30:04.503Z,1008.89
2019-05-06T00:31:12.792Z,1008.90
2019-05-06T00:32:04.467Z,1008.88
2019-05-06T00:33:04.422Z,1008.96
2019-05-06T00:34:04.451Z,1008.93
2019-05-06T00:35:04.596Z,1008.93
2019-05-06T00:36:04.869Z,1008.91
2019-05-06T00:37:04.706Z,1008.81
2019-05-06T00:38:04.976Z,1008.81
2019-05-06T00:39:05.217Z,1008.91
2019-05-06T00:40:05.589Z,1008.86
2019-05-06T00:41:05.834Z,1008.92
2019-05-06T00:42:05.789Z,1008.96
2019-05-06T00:43:06.306Z,1008.87
2019-05-06T00:44:06.384Z,1008.85
2019-05-06T00:45:06.833Z,1008.95
2019-05-06T00:46:07.328Z,1008.96
2019-05-06T00:47:07.548Z,1008.94
2019-05-06T00:48:07.810Z,1008.94
2019-05-06T00:49:08.048Z,1008.92
2019-05-06T00:50:08.312Z,1008.90
2019-05-06T00:51:08.752Z,1008.97
2019-05-06T00:52:08.999Z,1008.97
2019-05-06T00:53:09.463Z,1008.97
2019-05-06T00:54:09.874Z,1008.95
2019-05-06T00:55:09.880Z,1009.01
2019-05-06T00:56:10.132Z,1009.03
2019-05-06T00:57:10.462Z,1008.96
2019-05-06T00:58:10.947Z,1009.00
2019-05-06T00:59:11.181Z,1009.04
2019-05-06T01:00:13.473Z,1008.98
2019-05-06T01:01:24.017Z,1009.01
2019-05-06T01:02:14.050Z,1009.04
2019-05-06T01:03:14.080Z,1009.06
2019-05-06T01:04:13.909Z,1008.90
2019-05-06T01:05:13.918Z,1009.03
2019-05-06T01:06:14.222Z,1009.05
2019-05-06T01:07:14.133Z,1009.08
2019-05-06T01:08:14.278Z,1008.99
2019-05-06T01:09:14.740Z,1009.02
2019-05-06T01:10:15.036Z,1008.98
2019-05-06T01:11:14.835Z,1009.02
2019-05-06T01:12:14.805Z,1009.04
2019-05-06T01:13:15.051Z,1009.05
2019-05-06T01:14:15.243Z,1009.00
2019-05-06T01:15:15.736Z,1008.96
2019-05-06T01:16:15.897Z,1009.02
2019-05-06T01:17:15.698Z,1008.94
2019-05-06T01:18:16.031Z,1009.03
2019-05-06T01:19:16.239Z,1009.05
2019-05-06T01:20:16.810Z,1008.96
2019-05-06T01:21:16.679Z,1009.01
2019-05-06T01:22:16.926Z,1008.98
2019-05-06T01:23:17.390Z,1009.01
2019-05-06T01:24:17.828Z,1009.04
2019-05-06T01:25:18.164Z,1009.01
2019-05-06T01:26:18.412Z,1009.01
2019-05-06T01:27:18.721Z,1008.99
2019-05-06T01:28:19.204Z,1009.02
2019-05-06T01:29:19.464Z,1009.02
2019-05-06T01:30:19.847Z,1009.04
2019-05-06T01:31:20.186Z,1009.01
2019-05-06T01:32:20.679Z,1009.07
2019-05-06T01:33:20.913Z,1008.93
2019-05-06T01:34:21.401Z,1009.08
2019-05-06T01:35:21.843Z,1009.04
2019-05-06T01:36:22.088Z,1008.97
2019-05-06T01:37:23.986Z,1009.03
2019-05-06T01:38:24.285Z,1009.03
2019-05-06T01:39:24.535Z,1009.05
2019-05-06T01:40:23.901Z,1008.98
2019-05-06T01:41:24.387Z,1009.09
2019-05-06T01:42:24.622Z,1009.10
2019-05-06T01:43:24.157Z,1009.02
2019-05-06T01:45:24.486Z,1009.10
2019-05-06T01:46:25.009Z,1009.12
2019-05-06T01:47:24.757Z,1009.13
2019-05-06T01:48:25.207Z,1009.15
2019-05-06T01:49:25.154Z,1009.18
2019-05-06T01:50:25.411Z,1009.21
2019-05-06T01:51:25.932Z,1009.20
2019-05-06T01:52:25.806Z,1009.16
2019-05-06T01:53:26.240Z,1009.14
2019-05-06T01:54:26.460Z,1009.19
2019-05-06T01:55:26.690Z,1009.19
2019-05-06T01:56:27.220Z,1009.14
2019-05-06T01:57:27.038Z,1009.13
2019-05-06T01:58:27.407Z,1009.20
2019-05-06T01:59:27.879Z,1009.16
2019-05-06T02:00:28.268Z,1009.24
2019-05-06T02:01:28.680Z,1009.21
2019-05-06T02:02:28.919Z,1009.21
2019-05-06T02:03:29.169Z,1009.24
2019-05-06T02:04:29.593Z,1009.26
2019-05-06T02:05:30.127Z,1009.18
2019-05-06T02:06:29.899Z,1009.19
2019-05-06T02:07:30.037Z,1009.16
2019-05-06T02:08:30.322Z,1009.22
2019-05-06T02:09:30.675Z,1009.22
2019-05-06T02:10:30.911Z,1009.27
2019-05-06T02:11:33.617Z,1009.14
2019-05-06T02:12:31.350Z,1009.15
2019-05-06T02:13:31.859Z,1009.16
2019-05-06T02:14:33.934Z,1009.24
2019-05-06T02:15:32.009Z,1009.19
2019-05-06T02:16:34.127Z,1009.21
2019-05-06T02:17:34.357Z,1009.16
2019-05-06T02:18:33.979Z,1009.24
2019-05-06T02:19:34.747Z,1009.18
2019-05-06T02:20:34.076Z,1009.19
2019-05-06T02:22:34.616Z,1009.20
2019-05-06T02:23:34.177Z,1009.15
2019-05-06T02:24:34.189Z,1009.22
2019-05-06T02:25:34.494Z,1009.23
2019-05-06T02:26:34.691Z,1009.24
2019-05-06T02:27:34.917Z,1009.26
2019-05-06T02:28:35.171Z,1009.22
2019-05-06T02:29:35.773Z,1009.30
2019-05-06T02:30:36.717Z,1009.26
2019-05-06T02:31:36.080Z,1009.23
2019-05-06T02:32:36.590Z,1009.26
2019-05-06T02:33:36.727Z,1009.25
2019-05-06T02:34:36.865Z,1009.29
2019-05-06T02:35:36.926Z,1009.29
2019-05-06T02:36:37.320Z,1009.32
2019-05-06T02:37:37.453Z,1009.27
2019-05-06T02:38:46.872Z,1009.27
2019-05-06T02:39:38.192Z,1009.28
2019-05-06T02:40:38.642Z,1009.31
2019-05-06T02:41:38.848Z,1009.29
2019-05-06T02:42:39.175Z,1009.26
2019-05-06T02:43:39.690Z,1009.31
2019-05-06T02:44:39.639Z,1009.29
2019-05-06T02:45:39.911Z,1009.29
2019-05-06T02:46:40.131Z,1009.32
2019-05-06T02:47:43.018Z,1009.26
2019-05-06T02:48:43.259Z,1009.33
2019-05-06T02:49:44.029Z,1009.29
2019-05-06T02:50:42.716Z,1009.30
2019-05-06T02:51:44.230Z,1009.32
2019-05-06T02:52:44.141Z,1009.34
2019-05-06T02:53:42.919Z,1009.38
2019-05-06T02:54:42.774Z,1009.41
2019-05-06T02:55:43.155Z,1009.41
2019-05-06T02:56:43.532Z,1009.37
2019-05-06T02:57:43.972Z,1009.33
2019-05-06T02:58:43.815Z,1009.32
2019-05-06T02:59:44.189Z,1009.34
2019-05-06T03:00:43.808Z,1009.38
2019-05-06T03:01:44.036Z,1009.36
2019-05-06T03:02:48.005Z,1009.32
2019-05-06T03:03:44.589Z,1009.34
2019-05-06T03:04:44.810Z,1009.47
2019-05-06T03:05:45.078Z,1009.34
2019-05-06T03:06:45.302Z,1009.39
2019-05-06T03:07:45.571Z,1009.45
2019-05-06T03:08:46.074Z,1009.39
2019-05-06T03:09:46.305Z,1009.41
2019-05-06T03:10:46.768Z,1009.45
2019-05-06T03:11:46.990Z,1009.39
2019-05-06T03:12:47.217Z,1009.48
2019-05-06T03:13:47.561Z,1009.49
2019-05-06T03:14:47.814Z,1009.50
2019-05-06T03:15:48.138Z,1009.41
2019-05-06T03:16:48.649Z,1009.47
2019-05-06T03:17:48.515Z,1009.45
2019-05-06T03:18:48.544Z,1009.40
2019-05-06T03:19:48.832Z,1009.45
2019-05-06T03:20:49.104Z,1009.46
2019-05-06T03:21:49.358Z,1009.40
2019-05-06T03:22:49.751Z,1009.47
2019-05-06T03:23:50.066Z,1009.44
2019-05-06T03:24:50.562Z,1009.39
2019-05-06T03:25:53.354Z,1009.39
2019-05-06T03:26:56.110Z,1009.37
2019-05-06T03:27:53.264Z,1009.46
2019-05-06T03:28:53.609Z,1009.37
2019-05-06T03:29:53.701Z,1009.41
2019-05-06T03:30:56.518Z,1009.40
2019-05-06T03:31:56.393Z,1009.48
2019-05-06T03:33:23.492Z,1009.47
2019-05-06T03:34:16.489Z,1009.38
2019-05-06T03:35:16.629Z,1009.39
2019-05-06T03:36:06.595Z,1009.48
2019-05-06T03:36:56.004Z,1009.47
2019-05-06T03:37:54.855Z,1009.49
2019-05-06T03:38:55.119Z,1009.45
2019-05-06T03:39:54.897Z,1009.49
2019-05-06T03:40:55.389Z,1009.42
2019-05-06T03:41:55.321Z,1009.51
2019-05-06T03:42:55.569Z,1009.50
2019-05-06T03:43:55.806Z,1009.45
2019-05-06T03:44:56.061Z,1009.47
2019-05-06T03:45:56.169Z,1009.57
2019-05-06T03:46:56.732Z,1009.53
2019-05-06T03:47:56.927Z,1009.53
2019-05-06T03:48:56.894Z,1009.51
2019-05-06T03:49:57.154Z,1009.55
2019-05-06T03:50:57.382Z,1009.49
2019-05-06T03:51:57.886Z,1009.53
2019-05-06T03:52:58.115Z,1009.55
2019-05-06T03:53:58.533Z,1009.59
2019-05-06T03:54:58.478Z,1009.51
2019-05-06T03:55:58.991Z,1009.51
2019-05-06T03:56:59.241Z,1009.57
2019-05-06T03:57:59.097Z,1009.60
2019-05-06T03:58:59.177Z,1009.51
2019-05-06T03:59:59.641Z,1009.60
2019-05-06T04:00:59.519Z,1009.53
2019-05-06T04:01:59.564Z,1009.59
2019-05-06T04:03:02.877Z,1009.56
2019-05-06T04:04:03.316Z,1009.53
2019-05-06T04:05:03.597Z,1009.57
2019-05-06T04:06:03.798Z,1009.57
2019-05-06T04:07:03.341Z,1009.66
2019-05-06T04:08:03.842Z,1009.66
2019-05-06T04:09:03.715Z,1009.70
2019-05-06T04:10:03.582Z,1009.65
2019-05-06T04:11:03.206Z,1009.67
2019-05-06T04:12:03.537Z,1009.63
2019-05-06T04:13:04.156Z,1009.68
2019-05-06T04:14:03.002Z,1009.68
2019-05-06T04:15:03.919Z,1009.68
2019-05-06T04:16:03.743Z,1009.66
2019-05-06T04:17:03.489Z,1009.71
2019-05-06T04:18:04.053Z,1009.69
2019-05-06T04:19:04.250Z,1009.68
2019-05-06T04:20:04.191Z,1009.69
2019-05-06T04:21:03.926Z,1009.70
2019-05-06T04:22:03.964Z,1009.70
2019-05-06T04:23:06.366Z,1009.70
2019-05-06T04:24:04.492Z,1009.70
2019-05-06T04:25:04.723Z,1009.69
2019-05-06T04:26:05.605Z,1009.70
2019-05-06T04:27:05.006Z,1009.69
2019-05-06T04:28:04.958Z,1009.69
2019-05-06T04:29:05.240Z,1009.69
2019-05-06T04:30:05.630Z,1009.70
2019-05-06T04:31:05.876Z,1009.72
2019-05-06T04:32:06.354Z,1009.71
2019-05-06T04:33:06.614Z,1009.71
2019-05-06T04:34:14.071Z,1009.74
2019-05-06T04:35:07.316Z,1009.76
2019-05-06T04:36:07.779Z,1009.77
2019-05-06T04:37:09.029Z,1009.78
2019-05-06T04:38:08.320Z,1009.79
2019-05-06T04:39:08.891Z,1009.80
2019-05-06T04:40:09.146Z,1009.81
2019-05-06T04:41:09.474Z,1009.80
2019-05-06T04:42:09.973Z,1009.82
2019-05-06T04:43:13.183Z,1009.84
2019-05-06T04:44:13.540Z,1009.84
2019-05-06T04:45:16.655Z,1009.85
2019-05-06T04:46:13.650Z,1009.88
2019-05-06T04:47:14.707Z,1009.88
2019-05-06T04:48:14.434Z,1009.89
2019-05-06T04:49:15.044Z,1009.92
2019-05-06T04:50:13.398Z,1009.94
2019-05-06T04:51:13.718Z,1009.96
2019-05-06T04:53:13.873Z,1009.97
2019-05-06T04:54:13.924Z,1009.98
2019-05-06T04:55:14.481Z,1009.97
2019-05-06T04:56:14.566Z,1009.98
2019-05-06T04:57:14.968Z,1009.98
2019-05-06T04:58:14.965Z,1009.97
2019-05-06T04:59:15.202Z,1010.01
2019-05-06T05:00:15.715Z,1010.01
2019-05-06T05:01:16.012Z,1010.02
2019-05-06T05:02:15.922Z,1010.02
2019-05-06T05:03:16.131Z,1010.04
2019-05-06T05:04:27.759Z,1010.06
2019-05-06T05:05:16.808Z,1010.06
2019-05-06T05:06:17.193Z,1010.08
2019-05-06T05:07:17.432Z,1010.14
2019-05-06T05:08:17.883Z,1010.13
2019-05-06T05:09:18.244Z,1010.13
2019-05-06T05:10:18.574Z,1010.13
2019-05-06T05:11:18.783Z,1010.14
2019-05-06T05:12:18.900Z,1010.13
2019-05-06T05:13:18.969Z,1010.13
2019-05-06T05:14:24.776Z,1010.14
2019-05-06T05:15:19.696Z,1010.14
2019-05-06T05:16:21.772Z,1010.14
2019-05-06T05:17:22.335Z,1010.14
2019-05-06T05:18:22.219Z,1010.15
2019-05-06T05:19:23.088Z,1010.16
2019-05-06T05:20:36.472Z,1010.15
2019-05-06T05:21:22.895Z,1010.17
2019-05-06T05:22:22.003Z,1010.24
2019-05-06T05:23:22.901Z,1010.26
2019-05-06T05:24:23.509Z,1010.26
2019-05-06T05:25:22.664Z,1010.24
2019-05-06T05:26:22.913Z,1010.26
2019-05-06T05:27:23.334Z,1010.26
2019-05-06T05:28:23.791Z,1010.27
2019-05-06T05:29:24.048Z,1010.28
2019-05-06T05:30:24.571Z,1010.30
2019-05-06T05:31:24.432Z,1010.17
2019-05-06T05:32:26.779Z,1010.20
2019-05-06T05:33:24.693Z,1010.22
2019-05-06T05:34:37.064Z,1010.23
2019-05-06T05:35:25.219Z,1010.24
2019-05-06T05:36:25.703Z,1010.23
2019-05-06T05:37:25.915Z,1010.23
2019-05-06T05:38:26.143Z,1010.23
2019-05-06T05:39:26.364Z,1010.24
2019-05-06T05:40:26.709Z,1010.26
2019-05-06T05:41:26.921Z,1010.28
2019-05-06T05:42:27.198Z,1010.29
2019-05-06T05:43:27.634Z,1010.30
2019-05-06T05:44:27.923Z,1010.33
2019-05-06T05:45:28.083Z,1010.32
2019-05-06T05:46:28.658Z,1010.30
2019-05-06T05:47:28.798Z,1010.32
2019-05-06T05:48:29.037Z,1010.30
2019-05-06T05:49:29.289Z,1010.43
2019-05-06T05:50:29.307Z,1010.44
2019-05-06T05:51:29.517Z,1010.42
2019-05-06T05:52:29.972Z,1010.41
2019-05-06T05:53:32.834Z,1010.44
2019-05-06T05:54:32.990Z,1010.43
2019-05-06T05:55:33.007Z,1010.41
2019-05-06T05:56:33.029Z,1010.41
2019-05-06T05:57:32.244Z,1010.39
2019-05-06T05:58:33.033Z,1010.43
2019-05-06T05:59:32.906Z,1010.38
2019-05-06T06:00:32.554Z,1010.31
2019-05-06T06:01:32.793Z,1010.36
2019-05-06T06:02:33.262Z,1010.35
2019-05-06T06:03:32.888Z,1010.36
2019-05-06T06:04:33.390Z,1010.43
2019-05-06T06:05:33.352Z,1010.42
2019-05-06T06:06:33.776Z,1010.40
2019-05-06T06:07:34.257Z,1010.41
2019-05-06T06:08:36.882Z,1010.42
2019-05-06T06:09:34.995Z,1010.42
2019-05-06T06:10:34.974Z,1010.42
2019-05-06T06:11:35.446Z,1010.38
2019-05-06T06:12:35.685Z,1010.39
2019-05-06T06:13:36.138Z,1010.39
2019-05-06T06:14:36.502Z,1010.48
2019-05-06T06:15:36.539Z,1010.48
2019-05-06T06:16:36.925Z,1010.46
2019-05-06T06:17:37.053Z,1010.46
2019-05-06T06:18:37.100Z,1010.46
2019-05-06T06:19:37.319Z,1010.44
2019-05-06T06:20:37.573Z,1010.41
2019-05-06T06:21:37.621Z,1010.40
2019-05-06T06:22:37.809Z,1010.39
2019-05-06T06:23:38.059Z,1010.38
2019-05-06T06:24:38.287Z,1010.39
2019-05-06T06:25:38.788Z,1010.38
2019-05-06T06:26:39.207Z,1010.45
2019-05-06T06:27:39.600Z,1010.43
2019-05-06T06:28:39.534Z,1010.42
2019-05-06T06:29:41.700Z,1010.42
2019-05-06T06:30:40.018Z,1010.47
2019-05-06T06:31:42.680Z,1010.46
2019-05-06T06:32:41.936Z,1010.41
2019-05-06T06:33:42.875Z,1010.43
2019-05-06T06:34:42.704Z,1010.42
2019-05-06T06:35:42.646Z,1010.44
2019-05-06T06:36:42.281Z,1010.43
2019-05-06T06:37:42.782Z,1010.41
2019-05-06T06:38:42.984Z,1010.40
2019-05-06T06:39:43.081Z,1010.41
2019-05-06T06:40:44.214Z,1010.39
2019-05-06T06:41:43.442Z,1010.33
2019-05-06T06:42:43.702Z,1010.45
2019-05-06T06:43:43.946Z,1010.41
2019-05-06T06:44:44.428Z,1010.45
2019-05-06T06:45:44.652Z,1010.38
2019-05-06T06:47:44.921Z,1010.43
2019-05-06T06:48:45.340Z,1010.36
2019-05-06T06:49:45.783Z,1010.38
2019-05-06T06:50:46.166Z,1010.45
2019-05-06T06:51:46.141Z,1010.44
2019-05-06T06:52:46.366Z,1010.34
2019-05-06T06:53:46.827Z,1010.31
2019-05-06T06:54:47.052Z,1010.34
2019-05-06T06:55:47.328Z,1010.34
2019-05-06T06:56:47.600Z,1010.34
2019-05-06T06:57:47.953Z,1010.27
2019-05-06T06:58:48.358Z,1010.32
2019-05-06T06:59:48.291Z,1010.37
2019-05-06T07:00:48.629Z,1010.27
2019-05-06T07:01:48.655Z,1010.24
2019-05-06T07:02:48.719Z,1010.32
2019-05-06T07:03:48.936Z,1010.32
2019-05-06T07:04:49.441Z,1010.37
2019-05-06T07:05:49.775Z,1010.30
2019-05-06T07:06:49.903Z,1010.31
2019-05-06T07:07:49.780Z,1010.26
2019-05-06T07:08:51.787Z,1010.30
2019-05-06T07:09:50.214Z,1010.27
2019-05-06T07:10:52.416Z,1010.34
2019-05-06T07:11:52.561Z,1010.31
2019-05-06T07:12:53.183Z,1010.36
2019-05-06T07:13:52.891Z,1010.44
2019-05-06T07:14:52.308Z,1010.40
2019-05-06T07:15:52.129Z,1010.38
2019-05-06T07:16:53.358Z,1010.28
2019-05-06T07:17:52.471Z,1010.28
2019-05-06T07:18:52.702Z,1010.30
2019-05-06T07:19:52.830Z,1010.30
2019-05-06T07:20:52.866Z,1010.29
2019-05-06T07:21:53.122Z,1010.31
2019-05-06T07:22:53.240Z,1010.37
2019-05-06T07:23:53.636Z,1010.36
2019-05-06T07:24:54.029Z,1010.28
2019-05-06T07:25:54.429Z,1010.30
2019-05-06T07:26:54.862Z,1010.31
2019-05-06T07:27:54.915Z,1010.36
2019-05-06T07:28:55.212Z,1010.32
2019-05-06T07:29:55.493Z,1010.32
2019-05-06T07:30:55.984Z,1010.27
2019-05-06T07:31:56.210Z,1010.27
2019-05-06T07:32:56.598Z,1010.27
2019-05-06T07:33:59.908Z,1010.36
2019-05-06T07:34:57.198Z,1010.40
2019-05-06T07:35:57.508Z,1010.31
2019-05-06T07:36:57.778Z,1010.40
2019-05-06T07:37:58.000Z,1010.32
2019-05-06T07:38:58.630Z,1010.33
2019-05-06T07:39:59.026Z,1010.38
2019-05-06T07:40:59.430Z,1010.34
2019-05-06T07:41:59.349Z,1010.31
2019-05-06T07:43:01.743Z,1010.34
2019-05-06T07:44:02.018Z,1010.35
2019-05-06T07:45:00.200Z,1010.34
2019-05-06T07:46:02.524Z,1010.31
2019-05-06T07:47:03.366Z,1010.36
2019-05-06T07:48:03.403Z,1010.29
2019-05-06T07:49:03.310Z,1010.25
2019-05-06T07:50:02.576Z,1010.25
2019-05-06T07:51:03.094Z,1010.29
2019-05-06T07:52:02.986Z,1010.30
2019-05-06T07:53:02.609Z,1010.34
2019-05-06T07:54:02.919Z,1010.29
2019-05-06T07:55:02.751Z,1010.31
2019-05-06T07:56:03.663Z,1010.35
2019-05-06T07:57:02.711Z,1010.30
2019-05-06T07:58:02.993Z,1010.33
2019-05-06T07:59:03.233Z,1010.31
2019-05-06T08:00:03.625Z,1010.29
2019-05-06T08:01:03.067Z,1010.24
2019-05-06T08:02:03.595Z,1010.26
2019-05-06T08:03:03.615Z,1010.30
2019-05-06T08:04:03.677Z,1010.35
2019-05-06T08:05:03.551Z,1010.30
2019-05-06T08:06:04.093Z,1010.38
2019-05-06T08:07:04.125Z,1010.38
2019-05-06T08:08:04.171Z,1010.35
2019-05-06T08:09:04.211Z,1010.27
2019-05-06T08:10:04.411Z,1010.33
2019-05-06T08:11:04.812Z,1010.35
2019-05-06T08:12:05.049Z,1010.36
2019-05-06T08:13:05.431Z,1010.35
2019-05-06T08:14:05.676Z,1010.41
2019-05-06T08:15:06.302Z,1010.41
2019-05-06T08:16:06.393Z,1010.36
2019-05-06T08:17:06.863Z,1010.47
2019-05-06T08:18:06.826Z,1010.42
2019-05-06T08:19:07.088Z,1010.43
2019-05-06T08:20:07.364Z,1010.44
2019-05-06T08:21:07.780Z,1010.50
2019-05-06T08:22:07.602Z,1010.47
2019-05-06T08:23:08.024Z,1010.40
2019-05-06T08:24:08.537Z,1010.46
2019-05-06T08:25:08.769Z,1010.47
2019-05-06T08:26:13.058Z,1010.44
2019-05-06T08:27:09.674Z,1010.49
2019-05-06T08:28:09.905Z,1010.45
2019-05-06T08:29:12.132Z,1010.45
2019-05-06T08:30:12.736Z,1010.43
2019-05-06T08:31:12.661Z,1010.46
2019-05-06T08:32:12.253Z,1010.45
2019-05-06T08:33:12.899Z,1010.38
2019-05-06T08:34:12.264Z,1010.49
2019-05-06T08:35:13.395Z,1010.46
2019-05-06T08:36:14.832Z,1010.36
2019-05-06T08:37:12.865Z,1010.35
2019-05-06T08:38:13.118Z,1010.36
2019-05-06T08:39:13.413Z,1010.39
2019-05-06T08:40:13.922Z,1010.34
2019-05-06T08:41:13.651Z,1010.33
2019-05-06T08:42:13.900Z,1010.31
2019-05-06T08:43:14.100Z,1010.25
2019-05-06T08:44:14.458Z,1010.28
2019-05-06T08:45:15.039Z,1010.27
2019-05-06T08:46:14.780Z,1010.33
2019-05-06T08:47:15.031Z,1010.28
2019-05-06T08:48:15.325Z,1010.27
2019-05-06T08:49:15.549Z,1010.27
2019-05-06T08:50:16.100Z,1010.26
2019-05-06T08:51:16.031Z,1010.30
2019-05-06T08:52:16.139Z,1010.27
2019-05-06T08:53:16.484Z,1010.35
2019-05-06T08:54:16.497Z,1010.30
2019-05-06T08:55:16.844Z,1010.34
2019-05-06T08:56:16.772Z,1010.38
2019-05-06T08:57:17.394Z,1010.38
2019-05-06T08:58:17.821Z,1010.36
2019-05-06T08:59:18.162Z,1010.32
2019-05-06T09:00:18.425Z,1010.29
2019-05-06T09:01:18.891Z,1010.32
2019-05-06T09:02:19.108Z,1010.38
2019-05-06T09:03:19.540Z,1010.29
2019-05-06T09:04:19.777Z,1010.29
2019-05-06T09:05:22.157Z,1010.36
2019-05-06T09:06:29.742Z,1010.37
2019-05-06T09:07:20.777Z,1010.34
2019-05-06T09:08:22.732Z,1010.37
2019-05-06T09:09:22.399Z,1010.33
2019-05-06T09:10:22.676Z,1010.29
2019-05-06T09:11:25.611Z,1010.26
2019-05-06T09:12:22.380Z,1010.19
2019-05-06T09:13:23.169Z,1010.23
2019-05-06T09:14:23.354Z,1010.23
2019-05-06T09:15:23.150Z,1010.21
2019-05-06T09:16:23.104Z,1010.16
2019-05-06T09:17:23.323Z,1010.16
2019-05-06T09:18:24.209Z,1010.14
2019-05-06T09:19:24.275Z,1010.18
2019-05-06T09:20:24.622Z,1010.19
2019-05-06T09:21:24.955Z,1010.09
2019-05-06T09:22:25.321Z,1010.12
2019-05-06T09:23:27.556Z,1010.18
2019-05-06T09:24:25.972Z,1010.19
2019-05-06T09:25:26.203Z,1010.18
2019-05-06T09:26:26.566Z,1010.18
2019-05-06T09:27:26.835Z,1010.15
2019-05-06T09:28:27.392Z,1010.11
2019-05-06T09:29:27.972Z,1010.19
2019-05-06T09:30:28.232Z,1010.16
2019-05-06T09:31:28.652Z,1010.21
2019-05-06T09:32:28.914Z,1010.09
2019-05-06T09:33:29.434Z,1010.13
2019-05-06T09:34:32.484Z,1010.09
2019-05-06T09:35:30.072Z,1010.17
2019-05-06T09:36:41.327Z,1010.09
2019-05-06T09:37:32.501Z,1010.08
2019-05-06T09:38:32.179Z,1010.07
2019-05-06T09:39:32.228Z,1010.02
2019-05-06T09:40:31.872Z,1010.07
2019-05-06T09:41:32.472Z,1010.02
2019-05-06T09:42:32.208Z,1010.13
2019-05-06T09:43:32.851Z,1010.04
2019-05-06T09:44:33.153Z,1010.03
2019-05-06T09:46:33.275Z,1010.07
2019-05-06T09:47:33.681Z,1010.09
2019-05-06T09:48:33.965Z,1010.14
2019-05-06T09:49:33.946Z,1010.22
2019-05-06T09:50:34.120Z,1010.20
2019-05-06T09:51:34.566Z,1010.15
2019-05-06T09:52:34.820Z,1010.13
2019-05-06T09:54:35.102Z,1010.16
2019-05-06T09:55:35.544Z,1010.11
2019-05-06T09:56:35.941Z,1010.14
2019-05-06T09:57:35.853Z,1010.18
2019-05-06T09:58:36.264Z,1010.14
2019-05-06T09:59:36.280Z,1010.15
2019-05-06T10:00:36.504Z,1010.15
2019-05-06T10:01:36.950Z,1010.15
2019-05-06T10:02:37.198Z,1010.01
2019-05-06T10:03:37.474Z,1010.15
2019-05-06T10:04:37.765Z,1010.11
2019-05-06T10:05:37.983Z,1010.17
2019-05-06T10:06:38.279Z,1010.07
2019-05-06T10:07:38.707Z,1009.99
2019-05-06T10:08:38.619Z,1010.08
2019-05-06T10:09:39.333Z,1010.04
2019-05-06T10:10:52.480Z,1010.05
2019-05-06T10:11:42.214Z,1010.02
2019-05-06T10:12:42.034Z,1009.98
2019-05-06T10:13:42.940Z,1010.08
2019-05-06T10:14:43.308Z,1010.10
2019-05-06T10:15:42.852Z,1010.13
2019-05-06T10:16:43.056Z,1010.06
2019-05-06T10:17:42.871Z,1010.09
2019-05-06T10:18:42.407Z,1010.02
2019-05-06T10:19:43.130Z,1009.97
2019-05-06T10:20:43.257Z,1010.08
2019-05-06T10:21:43.603Z,1010.00
2019-05-06T10:22:43.956Z,1009.93
2019-05-06T10:23:44.217Z,1010.01
2019-05-06T10:24:44.447Z,1010.02
2019-05-06T10:25:44.682Z,1009.98
2019-05-06T10:26:44.925Z,1010.05
2019-05-06T10:27:45.380Z,1009.96
2019-05-06T10:28:45.491Z,1009.97
2019-05-06T10:29:45.586Z,1009.94
2019-05-06T10:30:45.924Z,1009.90
2019-05-06T10:31:46.167Z,1010.05
2019-05-06T10:32:46.616Z,1009.96
2019-05-06T10:33:46.857Z,1010.00
2019-05-06T10:34:47.278Z,1009.93
2019-05-06T10:35:50.425Z,1009.87
2019-05-06T10:36:47.884Z,1009.92
2019-05-06T10:37:47.757Z,1009.98
2019-05-06T10:38:48.202Z,1009.87
2019-05-06T10:39:48.373Z,1009.83
2019-05-06T10:41:00.974Z,1009.93
2019-05-06T10:41:49.009Z,1009.96
2019-05-06T10:42:49.309Z,1009.98
2019-05-06T10:43:52.411Z,1010.05
2019-05-06T10:44:49.785Z,1010.04
2019-05-06T10:45:52.066Z,1009.99
2019-05-06T10:46:52.804Z,1009.97
2019-05-06T10:47:50.762Z,1010.03
2019-05-06T10:48:53.040Z,1010.10
2019-05-06T10:49:52.962Z,1010.02
2019-05-06T10:50:52.125Z,1010.05
2019-05-06T10:51:52.988Z,1010.08
2019-05-06T10:52:51.926Z,1009.98
2019-05-06T10:53:52.130Z,1010.01
2019-05-06T10:54:52.329Z,1010.00
2019-05-06T10:55:53.644Z,1009.98
2019-05-06T10:56:57.070Z,1010.06
2019-05-06T10:57:53.184Z,1010.00
2019-05-06T10:58:53.176Z,1009.96
2019-05-06T10:59:53.512Z,1009.98
2019-05-06T11:00:53.497Z,1009.93
2019-05-06T11:01:53.820Z,1009.94
2019-05-06T11:02:54.318Z,1009.95
2019-05-06T11:03:54.358Z,1009.83
2019-05-06T11:04:54.827Z,1009.83
2019-05-06T11:05:55.289Z,1009.73
2019-05-06T11:06:55.012Z,1009.88
2019-05-06T11:07:55.498Z,1009.72
2019-05-06T11:08:55.805Z,1009.73
2019-05-06T11:09:56.043Z,1009.73
2019-05-06T11:10:56.275Z,1009.71
2019-05-06T11:11:56.679Z,1009.77
2019-05-06T11:12:56.919Z,1009.73
2019-05-06T11:13:57.257Z,1009.69
2019-05-06T11:14:57.676Z,1009.71
2019-05-06T11:15:57.978Z,1009.78
2019-05-06T11:16:58.359Z,1009.74
2019-05-06T11:17:58.725Z,1009.73
2019-05-06T11:18:58.960Z,1009.80
2019-05-06T11:19:59.439Z,1009.70
2019-05-06T11:20:59.756Z,1009.68
2019-05-06T11:21:59.966Z,1009.76
2019-05-06T11:23:02.084Z,1009.74
2019-05-06T11:24:00.780Z,1009.68
2019-05-06T11:25:02.938Z,1009.71
2019-05-06T11:26:03.007Z,1009.66
2019-05-06T11:27:03.383Z,1009.73
2019-05-06T11:28:02.999Z,1009.78
2019-05-06T11:29:05.246Z,1009.71
2019-05-06T11:30:02.648Z,1009.66
2019-05-06T11:31:02.816Z,1009.68
2019-05-06T11:32:03.290Z,1009.70
2019-05-06T11:33:04.757Z,1009.69
2019-05-06T11:34:03.580Z,1009.67
2019-05-06T11:35:03.935Z,1009.68
2019-05-06T11:36:04.069Z,1009.67
2019-05-06T11:37:04.217Z,1009.70
2019-05-06T11:38:04.309Z,1009.79
2019-05-06T11:39:04.718Z,1009.70
2019-05-06T11:40:04.745Z,1009.75
2019-05-06T11:41:04.818Z,1009.70
2019-05-06T11:42:23.917Z,1009.70
2019-05-06T11:43:05.019Z,1009.68
2019-05-06T11:44:08.887Z,1009.72
2019-05-06T11:45:05.715Z,1009.70
2019-05-06T11:46:06.001Z,1009.73
2019-05-06T11:47:06.389Z,1009.69
2019-05-06T11:48:06.595Z,1009.67
2019-05-06T11:49:06.860Z,1009.66
2019-05-06T11:50:07.304Z,1009.70
2019-05-06T11:51:07.483Z,1009.65
2019-05-06T11:52:07.567Z,1009.67
2019-05-06T11:53:08.010Z,1009.67
2019-05-06T11:54:19.434Z,1009.57
2019-05-06T11:55:08.726Z,1009.58
2019-05-06T11:56:08.962Z,1009.61
2019-05-06T11:57:09.400Z,1009.68
2019-05-06T11:58:09.452Z,1009.63
2019-05-06T11:59:09.636Z,1009.64
2019-05-06T12:00:10.355Z,1009.62
2019-05-06T12:01:09.868Z,1009.61
2019-05-06T12:02:12.603Z,1009.59
2019-05-06T12:03:12.671Z,1009.52
2019-05-06T12:04:14.160Z,1009.51
2019-05-06T12:05:11.355Z,1009.53
2019-05-06T12:06:13.101Z,1009.54
2019-05-06T12:07:15.477Z,1009.50
2019-05-06T12:08:15.619Z,1009.59
2019-05-06T12:09:16.567Z,1009.54
2019-05-06T12:10:13.104Z,1009.48
2019-05-06T12:11:13.100Z,1009.49
2019-05-06T12:12:13.335Z,1009.55
2019-05-06T12:13:13.847Z,1009.57
2019-05-06T12:14:13.625Z,1009.47
2019-05-06T12:15:14.224Z,1009.44